Time;durP1;ratioP1;P1;durP2;ratioP2;P2;SDS_P1;SDS_P2;PMS_P1;PMS_P2;Temp;Humidity;BMP_temperature;BMP_pressure;BME280_temperature;BME280_humidity;BME280_pressure;Samples;Min_cycle;Max_cycle;Signal;HPM_P1;HPM_P2
2022/10/08 00:01:58;;;;;;;14.60;9.10;;;;;;;12.15;78.16;100832.50;86034;1292;89460;-64
2022/10/08 00:04:07;;;;;;;13.30;9.20;;;;;;;12.16;78.24;100827.88;86213;1297;93820;-64
2022/10/08 00:06:18;;;;;;;16.00;9.30;;;;;;;12.15;78.31;100826.34;86187;1290;81871;-65
2022/10/08 00:08:29;;;;;;;12.70;8.80;;;;;;;12.17;78.39;100825.02;86030;1297;82381;-63
2022/10/08 00:10:38;;;;;;;14.60;9.80;;;;;;;12.15;78.27;100821.77;85987;1290;100084;-61
2022/10/08 00:12:47;;;;;;;11.10;8.90;;;;;;;12.15;78.36;100817.09;86141;1297;88946;-64
2022/10/08 00:14:55;;;;;;;12.30;9.30;;;;;;;12.15;78.27;100814.63;86129;1298;93935;-64
2022/10/08 00:17:04;;;;;;;11.50;8.80;;;;;;;12.14;78.38;100810.20;86146;1292;82447;-65
2022/10/08 00:19:16;;;;;;;13.60;10.30;;;;;;;12.14;78.43;100801.91;86130;1297;83248;-65
2022/10/08 00:21:28;;;;;;;13.90;9.40;;;;;;;12.13;78.43;100802.92;86154;1295;97852;-65
2022/10/08 00:23:39;;;;;;;13.70;9.90;;;;;;;12.09;78.52;100800.92;86098;1298;87860;-64
2022/10/08 00:25:49;;;;;;;17.30;9.20;;;;;;;12.06;78.47;100800.96;86090;1291;94796;-64
2022/10/08 00:27:57;;;;;;;13.40;9.10;;;;;;;12.05;78.64;100794.34;85973;1301;80891;-61
2022/10/08 00:30:11;;;;;;;13.30;9.70;;;;;;;12.07;78.71;100792.48;86000;1291;82305;-62
2022/10/08 00:32:20;;;;;;;12.60;9.20;;;;;;;12.07;78.62;100792.19;86100;1291;100050;-64
2022/10/08 00:34:29;;;;;;;12.70;9.30;;;;;;;12.01;78.56;100792.49;86069;1300;89454;-64
2022/10/08 00:36:44;;;;;;;14.70;9.40;;;;;;;12.00;78.76;100788.18;86036;1301;94113;-62
2022/10/08 00:38:57;;;;;;;11.30;8.80;;;;;;;12.00;78.69;100787.42;86003;1298;81363;-61
2022/10/08 00:41:17;;;;;;;13.00;9.30;;;;;;;11.97;78.76;100783.44;86018;1299;82690;-62
2022/10/08 00:46:24;;;;;;;12.00;9.30;;;;;;;11.94;78.87;100773.90;83094;1339;600273;-64
2022/10/08 00:48:36;;;;;;;13.80;9.80;;;;;;;11.91;78.84;100773.41;85162;1312;80655;-61
2022/10/08 00:50:45;;;;;;;13.00;9.20;;;;;;;11.86;78.98;100768.20;85142;1305;81793;-61
2022/10/08 00:53:00;;;;;;;13.20;10.60;;;;;;;11.83;79.02;100768.35;85076;1311;97545;-64
2022/10/08 00:55:13;;;;;;;14.00;9.90;;;;;;;11.80;79.02;100764.19;85024;1313;88453;-64
2022/10/08 00:57:23;;;;;;;14.60;10.40;;;;;;;11.78;79.03;100761.95;85041;1307;95431;-62
2022/10/08 00:59:32;;;;;;;13.80;9.40;;;;;;;11.75;79.12;100756.76;84755;1304;412582;-60
2022/10/08 01:01:42;;;;;;;12.70;9.80;;;;;;;11.74;79.18;100756.20;85276;1302;82521;-64
2022/10/08 01:03:54;;;;;;;12.10;8.90;;;;;;;11.74;79.26;100750.58;85326;1295;96894;-64
2022/10/08 01:06:14;;;;;;;13.10;9.90;;;;;;;11.78;79.42;100748.39;85299;1309;89013;-63
2022/10/08 01:08:34;;;;;;;13.80;10.10;;;;;;;11.85;79.33;100742.48;85427;1310;95178;-65
2022/10/08 01:10:53;;;;;;;14.80;10.20;;;;;;;11.92;79.67;100740.80;85415;1310;82359;-64
2022/10/08 01:13:17;;;;;;;14.40;10.00;;;;;;;11.96;79.61;100736.65;85345;1308;81237;-65
2022/10/08 01:15:36;;;;;;;13.40;10.10;;;;;;;12.00;79.58;100729.49;85363;1308;96275;-65
2022/10/08 01:17:51;;;;;;;12.60;10.00;;;;;;;12.02;79.51;100724.94;85346;1309;88896;-64
2022/10/08 01:20:31;;;;;;;14.20;9.30;;;;;;;12.06;79.47;100726.27;85266;1307;94263;-64
2022/10/08 01:22:59;;;;;;;12.50;9.70;;;;;;;12.04;79.56;100725.00;85374;1312;82234;-65
2022/10/08 01:25:33;;;;;;;11.50;9.50;;;;;;;12.04;79.53;100721.71;85305;1310;82391;-65
2022/10/08 01:27:49;;;;;;;12.00;9.50;;;;;;;12.02;79.57;100717.11;85288;1310;98023;-64
2022/10/08 01:30:04;;;;;;;14.30;9.80;;;;;;;12.03;79.65;100708.66;85281;1302;88130;-64
2022/10/08 01:32:21;;;;;;;11.40;9.20;;;;;;;12.09;79.52;100707.59;85266;1304;95085;-61
2022/10/08 01:34:37;;;;;;;12.30;9.00;;;;;;;12.08;79.52;100707.14;85251;1302;80692;-61
2022/10/08 01:36:54;;;;;;;13.80;9.70;;;;;;;12.10;79.51;100707.78;85250;1309;81819;-63
2022/10/08 01:39:14;;;;;;;14.40;10.80;;;;;;;12.11;79.53;100700.09;85260;1309;97849;-61
2022/10/08 01:41:25;;;;;;;13.50;9.30;;;;;;;12.08;79.65;100698.77;85279;1309;88631;-61
2022/10/08 01:43:42;;;;;;;12.50;9.50;;;;;;;12.05;79.64;100698.02;85275;1303;93530;-61
2022/10/08 01:45:57;;;;;;;16.80;10.80;;;;;;;12.00;79.58;100696.76;85283;1302;81454;-61
2022/10/08 01:48:14;;;;;;;11.80;9.40;;;;;;;12.01;79.74;100696.54;85327;1303;82925;-65
2022/10/08 01:50:30;;;;;;;14.00;9.70;;;;;;;11.99;79.80;100694.77;85296;1302;97742;-65
2022/10/08 01:52:47;;;;;;;11.80;9.50;;;;;;;11.96;79.57;100692.26;85302;1308;88913;-61
2022/10/08 01:55:02;;;;;;;11.00;9.30;;;;;;;11.93;79.56;100690.80;85344;1310;94577;-61
2022/10/08 01:57:12;;;;;;;14.20;9.30;;;;;;;11.90;79.57;100688.39;85326;1308;81565;-63
2022/10/08 01:59:25;;;;;;;14.10;9.90;;;;;;;11.81;79.72;100688.08;85325;1302;82439;-61
2022/10/08 02:01:43;;;;;;;16.60;10.00;;;;;;;11.85;79.82;100685.33;85315;1302;96718;-61
2022/10/08 02:06:20;;;;;;;13.20;9.80;;;;;;;11.94;79.96;100683.61;85253;1309;93143;-61
2022/10/08 02:08:28;;;;;;;11.20;9.60;;;;;;;11.97;79.95;100683.48;85257;1310;81199;-64
2022/10/08 02:10:37;;;;;;;13.50;9.90;;;;;;;12.00;80.00;100681.02;85267;1310;81832;-65
2022/10/08 02:12:47;;;;;;;11.80;9.70;;;;;;;12.07;80.01;100682.08;85363;1310;95918;-65
2022/10/08 02:15:03;;;;;;;16.40;9.80;;;;;;;12.11;80.10;100682.05;85341;1310;89177;-65
2022/10/08 02:17:24;;;;;;;12.70;10.40;;;;;;;12.12;80.03;100680.97;85310;1302;94004;-64
2022/10/08 02:19:44;;;;;;;12.40;9.70;;;;;;;12.12;79.89;100676.27;85232;1304;79706;-66
2022/10/08 02:21:56;;;;;;;11.60;9.80;;;;;;;12.10;79.87;100677.48;85736;1300;82336;-64
2022/10/08 02:24:17;;;;;;;11.00;9.10;;;;;;;12.09;79.96;100674.23;85724;1301;98885;-65
2022/10/08 02:26:33;;;;;;;11.20;9.50;;;;;;;12.05;79.97;100672.57;85702;1296;87504;-66
2022/10/08 02:28:49;;;;;;;15.00;9.90;;;;;;;12.02;79.99;100673.25;85711;1301;94810;-62
2022/10/08 02:31:06;;;;;;;13.40;9.50;;;;;;;12.01;80.13;100672.40;85718;1302;81980;-61
2022/10/08 02:33:21;;;;;;;11.30;10.10;;;;;;;12.01;80.05;100670.14;85710;1296;82828;-61
2022/10/08 02:35:42;;;;;;;14.60;10.10;;;;;;;11.97;80.19;100662.73;85687;1297;97792;-62
2022/10/08 02:37:58;;;;;;;14.20;10.10;;;;;;;11.95;80.26;100660.33;85769;1300;87630;-62
2022/10/08 02:40:14;;;;;;;13.50;9.80;;;;;;;11.91;80.19;100661.66;85736;1296;94504;-62
2022/10/08 02:42:27;;;;;;;12.50;10.20;;;;;;;11.89;80.10;100657.60;85733;1300;81549;-62
2022/10/08 02:44:42;;;;;;;11.60;9.30;;;;;;;11.89;80.18;100658.06;85743;1296;80007;-62
2022/10/08 02:46:54;;;;;;;13.10;9.20;;;;;;;11.85;80.26;100657.72;85759;1302;96207;-61
2022/10/08 02:49:10;;;;;;;11.60;9.50;;;;;;;11.83;80.31;100655.79;85805;1296;88724;-62
2022/10/08 02:51:21;;;;;;;13.40;9.60;;;;;;;11.79;80.32;100656.63;85721;1297;95115;-61
2022/10/08 02:53:30;;;;;;;13.90;9.40;;;;;;;11.76;80.54;100655.71;85793;1296;79373;-65
2022/10/08 02:55:48;;;;;;;14.40;9.90;;;;;;;11.75;80.54;100655.55;85803;1303;81917;-65
2022/10/08 02:58:05;;;;;;;12.80;9.90;;;;;;;11.74;80.60;100656.93;85760;1302;98622;-66
2022/10/08 03:00:15;;;;;;;14.60;10.00;;;;;;;11.68;80.52;100658.92;85751;1296;88978;-64
2022/10/08 03:02:32;;;;;;;12.40;9.80;;;;;;;11.65;80.67;100650.97;85760;1303;95102;-61
2022/10/08 03:04:47;;;;;;;13.60;10.30;;;;;;;11.63;80.71;100648.73;85714;1298;80984;-61
2022/10/08 03:06:58;;;;;;;14.90;10.00;;;;;;;11.59;80.84;100647.40;85714;1298;83748;-64
2022/10/08 03:09:11;;;;;;;12.50;9.50;;;;;;;11.58;80.94;100647.27;85713;1302;98612;-65
2022/10/08 03:11:23;;;;;;;13.60;9.90;;;;;;;11.58;81.01;100645.97;85679;1304;88801;-65
2022/10/08 03:13:37;;;;;;;12.00;9.50;;;;;;;11.53;81.05;100645.99;85789;1296;94891;-66
2022/10/08 03:15:53;;;;;;;12.30;10.10;;;;;;;11.49;80.97;100647.56;85809;1296;79474;-65
2022/10/08 03:18:04;;;;;;;16.40;10.70;;;;;;;11.49;81.00;100645.23;85800;1303;81157;-65
2022/10/08 03:20:15;;;;;;;11.90;9.90;;;;;;;11.47;81.16;100645.86;85800;1302;98801;-65
2022/10/08 03:22:24;;;;;;;13.80;10.10;;;;;;;11.46;81.10;100644.85;85767;1297;88115;-61
2022/10/08 03:24:34;;;;;;;12.40;10.00;;;;;;;11.42;81.17;100647.89;85738;1296;93860;-62
2022/10/08 03:26:45;;;;;;;12.20;10.00;;;;;;;11.39;81.08;100647.02;85736;1302;82033;-64
2022/10/08 03:28:55;;;;;;;13.00;10.70;;;;;;;11.36;81.27;100645.23;85804;1302;83055;-65
2022/10/08 03:31:07;;;;;;;13.70;9.90;;;;;;;11.35;81.50;100643.83;85792;1290;97888;-65
2022/10/08 03:33:16;;;;;;;14.00;10.70;;;;;;;11.33;81.66;100643.48;85816;1296;87610;-66
2022/10/08 03:35:25;;;;;;;13.60;9.80;;;;;;;11.35;81.86;100639.80;85812;1302;93618;-65
2022/10/08 03:37:34;;;;;;;15.40;10.90;;;;;;;11.37;81.77;100639.45;85805;1300;81361;-62
2022/10/08 03:39:43;;;;;;;13.70;9.90;;;;;;;11.38;81.85;100639.18;85728;1296;82772;-62
2022/10/08 03:41:51;;;;;;;11.40;9.80;;;;;;;11.40;81.97;100631.50;85775;1296;97143;-63
2022/10/08 03:44:00;;;;;;;16.40;10.50;;;;;;;11.41;81.99;100626.02;85740;1296;88504;-62
2022/10/08 03:46:11;;;;;;;12.40;9.90;;;;;;;11.44;82.08;100624.39;85740;1302;94412;-62
2022/10/08 03:48:22;;;;;;;12.20;9.90;;;;;;;11.52;82.25;100627.41;85764;1302;80552;-62
2022/10/08 03:50:30;;;;;;;12.30;10.30;;;;;;;11.55;82.10;100625.40;85762;1302;82828;-62
2022/10/08 03:52:40;;;;;;;14.60;10.00;;;;;;;11.53;82.11;100627.20;85780;1302;97704;-65
2022/10/08 03:54:49;;;;;;;17.30;11.00;;;;;;;11.55;82.12;100626.69;85750;1303;85575;-65
2022/10/08 03:56:57;;;;;;;12.60;9.90;;;;;;;11.59;82.14;100628.12;85756;1294;94832;-64
2022/10/08 03:59:06;;;;;;;17.50;12.20;;;;;;;11.59;82.20;100625.55;85700;1296;81629;-65
2022/10/08 04:01:17;;;;;;;11.80;10.50;;;;;;;11.64;82.31;100627.80;85749;1302;82809;-66
2022/10/08 04:03:26;;;;;;;14.40;10.50;;;;;;;11.71;82.32;100629.53;86004;1293;98280;-65
2022/10/08 04:05:35;;;;;;;13.40;11.30;;;;;;;11.75;82.46;100629.21;85943;1298;87718;-65
2022/10/08 04:07:44;;;;;;;10.90;9.80;;;;;;;11.77;82.50;100626.44;85958;1299;95184;-62
2022/10/08 04:09:53;;;;;;;12.30;9.60;;;;;;;11.81;82.47;100628.36;85959;1285;81191;-62
2022/10/08 04:12:02;;;;;;;13.30;10.60;;;;;;;11.90;82.52;100627.13;85928;1291;82765;-61
2022/10/08 04:14:11;;;;;;;15.10;10.50;;;;;;;11.96;82.52;100625.81;85976;1291;97825;-62
2022/10/08 04:16:21;;;;;;;18.30;11.00;;;;;;;11.98;82.47;100625.00;85964;1299;88990;-62
2022/10/08 04:18:30;;;;;;;14.00;10.80;;;;;;;12.02;82.56;100625.41;85964;1291;95351;-64
2022/10/08 04:20:40;;;;;;;11.90;10.10;;;;;;;12.04;82.60;100625.48;85982;1293;82227;-64
2022/10/08 04:22:48;;;;;;;11.70;10.40;;;;;;;12.08;82.51;100623.89;85983;1293;83009;-65
2022/10/08 04:24:58;;;;;;;11.40;10.20;;;;;;;12.12;82.47;100623.52;86006;1291;98397;-64
2022/10/08 04:27:07;;;;;;;11.70;10.00;;;;;;;12.15;82.56;100622.70;86028;1293;89236;-64
2022/10/08 04:29:16;;;;;;;13.30;10.50;;;;;;;12.17;82.59;100622.19;86030;1291;94826;-65
2022/10/08 04:31:28;;;;;;;10.90;9.70;;;;;;;12.22;82.49;100618.52;86048;1293;82033;-65
2022/10/08 04:33:39;;;;;;;12.30;10.60;;;;;;;12.27;82.50;100621.33;86021;1299;81802;-61
2022/10/08 04:35:47;;;;;;;13.30;10.60;;;;;;;12.28;82.49;100619.12;86016;1299;96918;-62
2022/10/08 04:37:58;;;;;;;13.30;10.00;;;;;;;12.33;82.45;100617.58;85948;1299;88633;-62
2022/10/08 04:40:09;;;;;;;12.30;9.10;;;;;;;12.33;82.58;100620.14;85954;1299;94581;-62
2022/10/08 04:42:19;;;;;;;14.40;9.80;;;;;;;12.35;82.56;100617.19;86000;1292;79428;-62
2022/10/08 04:44:28;;;;;;;11.80;10.00;;;;;;;12.41;82.54;100615.11;85957;1293;82302;-62
2022/10/08 04:46:37;;;;;;;12.10;9.60;;;;;;;12.46;82.36;100611.86;85956;1299;98884;-63
2022/10/08 04:48:51;;;;;;;14.20;10.00;;;;;;;12.50;82.29;100611.84;85957;1292;89074;-65
2022/10/08 04:50:59;;;;;;;;;;;;;;;12.52;82.34;100611.73;85983;1292;94607;-64
2022/10/08 04:53:09;;;;;;;13.30;10.60;;;;;;;12.51;82.45;100609.35;85979;1293;83377;-62
2022/10/08 04:55:18;;;;;;;11.20;10.00;;;;;;;12.54;82.48;100609.50;85979;1293;82038;-62
2022/10/08 04:57:27;;;;;;;13.50;10.20;;;;;;;12.56;82.42;100610.34;85917;1291;98727;-61
2022/10/08 04:59:36;;;;;;;12.70;10.30;;;;;;;12.62;82.66;100606.85;85969;1291;88447;-61
2022/10/08 05:01:48;;;;;;;14.50;11.20;;;;;;;12.66;82.56;100610.52;85946;1289;94107;-63
2022/10/08 05:03:59;;;;;;;13.80;10.40;;;;;;;12.67;82.46;100607.13;86000;1293;81254;-62
2022/10/08 05:06:13;;;;;;;12.90;9.90;;;;;;;12.68;82.44;100602.60;85974;1299;81405;-62
2022/10/08 05:08:23;;;;;;;;;;;;;;;12.67;82.39;100608.17;86070;1293;98426;-63
2022/10/08 05:10:33;;;;;;;16.70;11.50;;;;;;;12.71;82.40;100607.87;85966;1291;86946;-62
2022/10/08 05:12:42;;;;;;;13.50;10.60;;;;;;;12.71;82.43;100611.03;86080;1293;94799;-62
2022/10/08 05:14:51;;;;;;;14.30;10.90;;;;;;;12.72;82.43;100607.71;85986;1293;81020;-62
2022/10/08 05:17:00;;;;;;;12.70;10.80;;;;;;;12.70;82.50;100609.91;85981;1292;83039;-61
2022/10/08 05:19:09;;;;;;;15.40;10.30;;;;;;;12.74;82.51;100611.86;85976;1293;98177;-60
2022/10/08 05:21:20;;;;;;;14.30;10.60;;;;;;;12.78;82.51;100613.42;86029;1299;87112;-60
2022/10/08 05:23:29;;;;;;;11.10;9.70;;;;;;;12.83;82.44;100613.29;85864;1299;97704;-62
2022/10/08 05:25:38;;;;;;;14.90;11.50;;;;;;;12.89;82.44;100619.02;85959;1291;82539;-63
2022/10/08 05:27:48;;;;;;;14.70;11.30;;;;;;;12.96;82.47;100616.83;86051;1299;82129;-64
2022/10/08 05:29:57;;;;;;;13.90;10.70;;;;;;;13.02;82.41;100618.73;86082;1293;98594;-63
2022/10/08 05:32:08;;;;;;;11.40;10.10;;;;;;;13.10;82.33;100614.70;86032;1284;88653;-61
2022/10/08 05:34:18;;;;;;;13.90;11.00;;;;;;;13.18;82.41;100618.55;85934;1296;95896;-61
2022/10/08 05:36:31;;;;;;;11.00;9.60;;;;;;;13.26;82.43;100616.34;85969;1299;81881;-61
2022/10/08 05:38:43;;;;;;;13.30;10.90;;;;;;;13.38;82.44;100618.84;85978;1291;82771;-61
2022/10/08 05:40:52;;;;;;;15.30;10.80;;;;;;;13.90;82.72;100617.80;85952;1291;98182;-61
2022/10/08 05:43:01;;;;;;;13.50;10.60;;;;;;;14.65;82.45;100629.02;86017;1293;88304;-64
2022/10/08 05:45:12;;;;;;;15.00;10.60;;;;;;;14.91;81.39;100623.22;86040;1298;95516;-64
2022/10/08 05:47:21;;;;;;;13.20;10.20;;;;;;;14.80;81.09;100625.50;86034;1291;80158;-61
2022/10/08 05:49:33;;;;;;;11.60;10.40;;;;;;;14.70;80.71;100630.73;86027;1293;81071;-62
2022/10/08 05:51:42;;;;;;;13.40;11.20;;;;;;;14.76;80.71;100631.00;86004;1293;96984;-63
2022/10/08 05:53:53;;;;;;;12.10;10.40;;;;;;;14.76;80.52;100631.27;86012;1292;89388;-62
2022/10/08 05:56:07;;;;;;;16.50;11.10;;;;;;;14.71;80.29;100633.42;86002;1299;94556;-63
2022/10/08 05:58:16;;;;;;;13.30;10.60;;;;;;;14.66;80.25;100635.89;86099;1291;82115;-64
2022/10/08 06:00:27;;;;;;;12.30;10.70;;;;;;;14.62;80.10;100636.19;86040;1291;81754;-64
2022/10/08 06:02:36;;;;;;;11.50;10.40;;;;;;;14.59;79.99;100639.45;86015;1285;99033;-63
2022/10/08 06:04:50;;;;;;;13.20;10.60;;;;;;;14.55;79.94;100639.61;86044;1299;87965;-62
2022/10/08 06:06:58;;;;;;;;;;;;;;;14.54;80.04;100640.79;86002;1292;93302;-62
2022/10/08 06:09:08;;;;;;;12.40;10.10;;;;;;;14.50;79.99;100642.29;85944;1293;82435;-63
2022/10/08 06:11:17;;;;;;;13.00;9.90;;;;;;;14.52;79.93;100649.11;85970;1293;80984;-63
2022/10/08 06:13:29;;;;;;;12.80;10.30;;;;;;;14.47;79.94;100649.62;86059;1298;99518;-63
2022/10/08 06:15:39;;;;;;;16.30;10.80;;;;;;;14.42;79.97;100647.35;86004;1295;85914;-63
2022/10/08 06:17:50;;;;;;;11.40;10.10;;;;;;;14.44;80.04;100642.59;86016;1299;94520;-62
2022/10/08 06:19:59;;;;;;;12.90;9.70;;;;;;;14.45;80.00;100643.84;85845;1293;83307;-62
2022/10/08 06:22:09;;;;;;;15.50;10.10;;;;;;;14.45;80.13;100636.91;85947;1293;81510;-62
2022/10/08 06:24:17;;;;;;;14.10;10.30;;;;;;;14.49;80.15;100637.69;85954;1291;98338;-62
2022/10/08 06:26:31;;;;;;;13.80;9.90;;;;;;;14.54;80.20;100637.98;85974;1291;87148;-61
2022/10/08 06:28:41;;;;;;;11.50;9.90;;;;;;;14.60;80.21;100639.02;85960;1299;94471;-61
2022/10/08 06:30:51;;;;;;;12.60;9.90;;;;;;;14.61;80.24;100640.95;85857;1294;82401;-61
2022/10/08 06:33:04;;;;;;;12.50;10.50;;;;;;;14.66;80.18;100637.70;85962;1299;81682;-60
2022/10/08 06:35:18;;;;;;;15.80;10.60;;;;;;;14.69;80.11;100642.87;85927;1292;97750;-60
2022/10/08 06:37:29;;;;;;;12.60;9.80;;;;;;;14.81;80.09;100643.66;85985;1293;87713;-61
2022/10/08 06:39:41;;;;;;;15.10;11.80;;;;;;;14.88;79.88;100645.36;85949;1295;92981;-61
2022/10/08 06:41:54;;;;;;;12.20;10.40;;;;;;;14.87;79.98;100647.38;85849;1293;79102;-60
2022/10/08 06:44:06;;;;;;;12.80;10.40;;;;;;;14.87;79.93;100650.80;85970;1292;81324;-60
2022/10/08 06:46:19;;;;;;;13.30;11.20;;;;;;;14.91;79.79;100648.34;85871;1293;98725;-62
2022/10/08 06:48:33;;;;;;;14.10;11.50;;;;;;;14.94;79.73;100648.23;85986;1295;86456;-60
2022/10/08 06:51:01;;;;;;;14.60;10.70;;;;;;;14.98;79.65;100646.36;85842;1301;93605;-60
2022/10/08 06:53:13;;;;;;;16.10;11.30;;;;;;;15.02;79.79;100646.80;85832;1300;78385;-59
2022/10/08 06:55:24;;;;;;;11.60;10.30;;;;;;;15.06;79.66;100648.78;85956;1291;82847;-59
2022/10/08 06:57:37;;;;;;;14.40;11.10;;;;;;;15.14;79.59;100647.99;85959;1291;97362;-62
2022/10/08 06:59:53;;;;;;;14.80;11.20;;;;;;;15.16;79.62;100648.12;85934;1291;88322;-62
2022/10/08 07:03:15;;;;;;;15.20;10.60;;;;;;;15.19;79.65;100650.80;85854;1300;95346;-60
2022/10/08 07:05:30;;;;;;;11.20;9.90;;;;;;;15.26;79.62;100651.66;85650;1294;80849;-60
2022/10/08 07:07:49;;;;;;;14.00;11.00;;;;;;;15.31;79.60;100650.52;85661;1299;83391;-60
2022/10/08 07:10:02;;;;;;;12.20;10.90;;;;;;;15.37;79.49;100650.58;85649;1304;96924;-60
2022/10/08 07:12:13;;;;;;;12.70;10.20;;;;;;;15.43;79.37;100643.81;85731;1300;87630;-63
2022/10/08 07:14:26;;;;;;;15.00;10.50;;;;;;;15.49;79.37;100642.23;85664;1299;94804;-63
2022/10/08 07:16:38;;;;;;;13.90;10.80;;;;;;;15.51;79.42;100644.33;85710;1297;79598;-61
2022/10/08 07:18:57;;;;;;;16.00;10.90;;;;;;;15.63;79.40;100646.38;85644;1306;80781;-60
2022/10/08 07:21:12;;;;;;;15.50;11.50;;;;;;;15.69;79.31;100641.95;85676;1299;97674;-60
2022/10/08 07:23:25;;;;;;;13.10;11.50;;;;;;;15.72;79.14;100642.52;85659;1297;88644;-60
2022/10/08 07:25:38;;;;;;;14.20;10.30;;;;;;;15.79;79.00;100641.17;85602;1298;94997;-61
2022/10/08 07:27:50;;;;;;;11.90;10.60;;;;;;;15.79;78.95;100640.80;85665;1305;78914;-60
2022/10/08 07:30:04;;;;;;;13.20;10.70;;;;;;;15.80;79.07;100639.63;85608;1305;83347;-60
2022/10/08 07:32:16;;;;;;;14.80;10.80;;;;;;;15.83;79.00;100638.48;85678;1298;97387;-60
2022/10/08 07:34:28;;;;;;;15.10;11.00;;;;;;;15.83;79.02;100635.91;85659;1297;87046;-61
2022/10/08 07:36:42;;;;;;;14.90;10.10;;;;;;;15.86;79.05;100635.91;85661;1303;93145;-61
2022/10/08 07:39:00;;;;;;;13.30;10.90;;;;;;;15.91;79.06;100635.80;85632;1299;82578;-61
2022/10/08 07:41:15;;;;;;;18.40;11.00;;;;;;;15.96;78.98;100632.02;85649;1291;82448;-61
2022/10/08 07:43:26;;;;;;;14.90;11.00;;;;;;;16.03;78.83;100627.96;85684;1305;99100;-60
2022/10/08 07:45:35;;;;;;;13.50;11.40;;;;;;;16.10;78.77;100629.00;85709;1297;88404;-60
2022/10/08 07:47:44;;;;;;;14.10;10.80;;;;;;;16.15;78.70;100628.90;85643;1290;94688;-63
2022/10/08 07:49:52;;;;;;;15.00;11.40;;;;;;;16.24;78.56;100626.85;85650;1304;80655;-58
2022/10/08 07:52:02;;;;;;;14.60;11.80;;;;;;;16.28;78.59;100622.39;85666;1297;81594;-61
2022/10/08 07:54:15;;;;;;;13.00;11.20;;;;;;;16.30;78.44;100625.77;85714;1300;96702;-61
2022/10/08 07:56:25;;;;;;;12.60;11.30;;;;;;;16.36;78.29;100627.70;85660;1305;89055;-62
2022/10/08 07:58:34;;;;;;;13.00;9.80;;;;;;;16.31;78.30;100622.65;85689;1297;94316;-61
2022/10/08 08:00:44;;;;;;;15.90;10.80;;;;;;;16.35;78.31;100625.61;85631;1305;80932;-61
2022/10/08 08:02:52;;;;;;;12.90;10.40;;;;;;;16.46;78.27;100623.41;85714;1299;80843;-62
2022/10/08 08:05:02;;;;;;;15.90;10.40;;;;;;;16.59;78.15;100619.73;85755;1296;98816;-61
2022/10/08 08:07:11;;;;;;;14.80;10.20;;;;;;;16.71;78.01;100616.73;85762;1296;88762;-60
2022/10/08 08:09:20;;;;;;;12.40;10.10;;;;;;;16.75;77.81;100618.16;85737;1296;95107;-60
2022/10/08 08:11:30;;;;;;;13.20;9.90;;;;;;;16.81;77.81;100612.39;85775;1302;80755;-61
2022/10/08 08:13:40;;;;;;;14.60;10.30;;;;;;;17.01;77.74;100611.17;85831;1295;83300;-62
2022/10/08 08:15:55;;;;;;;15.70;13.00;;;;;;;17.25;77.55;100610.55;85799;1300;98743;-61
2022/10/08 08:18:06;;;;;;;15.30;11.00;;;;;;;17.39;77.55;100607.02;85840;1302;87443;-63
2022/10/08 08:20:15;;;;;;;13.50;10.30;;;;;;;17.72;77.18;100605.34;85775;1302;92987;-62
2022/10/08 08:22:27;;;;;;;11.40;9.80;;;;;;;18.04;76.74;100606.71;85817;1297;81080;-63
2022/10/08 08:24:35;;;;;;;11.40;9.70;;;;;;;18.19;76.24;100608.96;85798;1297;82755;-63
2022/10/08 08:26:45;;;;;;;9.80;8.80;;;;;;;18.54;76.04;100611.36;85795;1295;96950;-63
2022/10/08 08:29:00;;;;;;;11.90;9.50;;;;;;;18.78;75.65;100615.67;85816;1297;87694;-62
2022/10/08 08:31:16;;;;;;;11.40;9.40;;;;;;;18.66;75.51;100609.25;85783;1295;93715;-62
2022/10/08 08:33:24;;;;;;;10.20;9.20;;;;;;;18.77;75.02;100614.46;85772;1296;79576;-63
2022/10/08 08:35:33;;;;;;;10.90;9.60;;;;;;;18.78;74.62;100617.70;85794;1297;83259;-63
2022/10/08 08:37:41;;;;;;;12.00;9.40;;;;;;;18.79;74.30;100615.44;85769;1301;98409;-61
2022/10/08 08:39:53;;;;;;;11.60;9.00;;;;;;;18.87;73.87;100614.09;85759;1303;89819;-60
2022/10/08 08:42:29;;;;;;;14.70;9.80;;;;;;;18.85;73.38;100611.17;85779;1296;96496;-62
2022/10/08 08:44:41;;;;;;;11.50;9.70;;;;;;;18.87;73.41;100613.75;85742;1301;80673;-61
2022/10/08 08:46:59;;;;;;;11.90;9.20;;;;;;;19.02;73.20;100608.67;85792;1301;82001;-62
2022/10/08 08:49:20;;;;;;;12.40;9.60;;;;;;;19.44;73.01;100605.50;85771;1302;97256;-62
2022/10/08 08:51:31;;;;;;;11.10;9.80;;;;;;;19.76;72.03;100597.56;85760;1296;88868;-63
2022/10/08 08:53:40;;;;;;;11.10;9.30;;;;;;;20.06;71.93;100598.09;85754;1302;93585;-64
2022/10/08 08:55:54;;;;;;;11.70;10.60;;;;;;;20.36;71.24;100595.39;85778;1301;78024;-64
2022/10/08 08:58:15;;;;;;;10.60;9.50;;;;;;;20.68;70.63;100594.08;85799;1297;80952;-62
2022/10/08 09:00:30;;;;;;;11.40;8.90;;;;;;;21.09;70.73;100589.83;85459;1296;447875;-61
2022/10/08 09:02:51;;;;;;;9.80;8.50;;;;;;;21.40;69.58;100589.65;85798;1296;88724;-63
2022/10/08 09:05:10;;;;;;;11.20;8.50;;;;;;;21.64;69.51;100585.01;85822;1296;94938;-62
2022/10/08 09:07:24;;;;;;;9.80;8.60;;;;;;;22.13;68.36;100579.10;85832;1300;80233;-64
2022/10/08 09:09:37;;;;;;;10.00;7.90;;;;;;;22.38;67.28;100585.56;85802;1297;80989;-63
2022/10/08 09:11:46;;;;;;;8.10;7.30;;;;;;;22.62;67.18;100588.61;85814;1287;98496;-61
2022/10/08 09:14:03;;;;;;;8.80;7.90;;;;;;;22.78;65.99;100589.05;85816;1296;86443;-60
2022/10/08 09:16:15;;;;;;;10.50;8.10;;;;;;;22.89;65.46;100587.14;85728;1299;95025;-62
2022/10/08 09:18:25;;;;;;;11.30;7.30;;;;;;;23.08;65.36;100586.98;85815;1297;79350;-62
2022/10/08 09:20:34;;;;;;;8.90;7.50;;;;;;;23.18;65.74;100588.87;85736;1296;82594;-63
2022/10/08 09:22:45;;;;;;;9.30;7.60;;;;;;;23.30;65.21;100584.73;85801;1297;97713;-63
2022/10/08 09:25:00;;;;;;;10.00;7.70;;;;;;;23.22;63.96;100589.92;85808;1294;89420;-63
2022/10/08 09:27:15;;;;;;;8.40;7.30;;;;;;;23.01;63.42;100593.83;85802;1301;95566;-61
2022/10/08 09:29:37;;;;;;;9.10;7.70;;;;;;;22.84;63.12;100594.27;85756;1303;77656;-61
2022/10/08 09:31:49;;;;;;;9.50;7.20;;;;;;;22.64;63.31;100593.00;85814;1300;82907;-63
2022/10/08 09:34:05;;;;;;;9.50;7.90;;;;;;;22.55;62.97;100594.12;85781;1296;96990;-64
2022/10/08 09:36:28;;;;;;;8.80;7.60;;;;;;;22.45;62.66;100594.42;85800;1300;87771;-63
2022/10/08 09:38:37;;;;;;;;;;;;;;;22.31;62.38;100590.89;85761;1296;94259;-62
2022/10/08 09:41:01;;;;;;;8.10;7.30;;;;;;;22.13;62.97;100586.61;85770;1302;80421;-62
2022/10/08 09:43:19;;;;;;;9.30;7.00;;;;;;;22.07;62.83;100582.79;85832;1301;82450;-62
2022/10/08 09:45:41;;;;;;;8.40;7.50;;;;;;;21.95;63.01;100580.09;85781;1296;98529;-62
2022/10/08 09:48:17;;;;;;;9.30;7.70;;;;;;;21.85;63.21;100576.11;85816;1302;88028;-61
2022/10/08 09:50:26;;;;;;;9.00;8.00;;;;;;;21.67;63.30;100575.85;85809;1296;93533;-61
2022/10/08 09:52:36;;;;;;;11.70;8.10;;;;;;;21.56;63.22;100574.67;85767;1303;78335;-58
2022/10/08 09:54:51;;;;;;;8.80;7.70;;;;;;;21.54;63.53;100572.23;85799;1297;83119;-60
2022/10/08 09:57:02;;;;;;;10.60;8.70;;;;;;;21.61;63.65;100563.45;85801;1302;98238;-63
2022/10/08 09:59:21;;;;;;;10.10;8.20;;;;;;;21.70;63.94;100564.98;85846;1300;86930;-63
2022/10/08 10:01:31;;;;;;;13.80;7.60;;;;;;;21.76;64.44;100565.49;85751;1303;92723;-63
2022/10/08 10:03:48;;;;;;;9.70;7.90;;;;;;;21.85;64.39;100563.67;85780;1297;80965;-61
2022/10/08 10:06:03;;;;;;;10.20;8.40;;;;;;;21.81;64.08;100561.36;85795;1297;82994;-62
2022/10/08 10:08:50;;;;;;;8.70;7.80;;;;;;;21.80;63.56;100560.64;85824;1296;99354;-62
2022/10/08 10:11:00;;;;;;;9.60;7.70;;;;;;;21.82;63.63;100560.72;85720;1296;87775;-61
2022/10/08 10:13:15;;;;;;;9.10;7.30;;;;;;;21.79;63.95;100559.98;85739;1297;97399;-63
2022/10/08 10:15:32;;;;;;;10.30;8.00;;;;;;;21.82;64.25;100565.78;85778;1297;78800;-63